Time;durP1;ratioP1;P1;durP2;ratioP2;P2;SDS_P1;SDS_P2;PMS_P1;PMS_P2;Temp;Humidity;BMP_temperature;BMP_pressure;BME280_temperature;BME280_humidity;BME280_pressure;Samples;Min_cycle;Max_cycle;Signal;HPM_P1;HPM_P2
2022/12/25 00:00:10;;;;;;;5.07;2.80;;;9.00;99.90;;;;;;10440405;28;20036;-68
2022/12/25 00:05:11;;;;;;;6.88;2.90;;;9.00;99.90;;;;;;10440103;28;20028;-69
2022/12/25 00:10:12;;;;;;;4.97;2.50;;;9.00;99.90;;;;;;10436348;28;20454;-68
2022/12/25 00:15:12;;;;;;;5.47;2.67;;;8.90;99.90;;;;;;10449574;28;20025;-68
2022/12/25 00:20:13;;;;;;;4.32;2.50;;;8.90;99.90;;;;;;10437095;28;20018;-68
2022/12/25 00:25:14;;;;;;;5.35;2.80;;;8.90;99.90;;;;;;10434110;28;20024;-68
2022/12/25 00:30:14;;;;;;;4.90;3.03;;;8.90;99.90;;;;;;10435463;28;20025;-68
2022/12/25 00:35:15;;;;;;;6.82;3.00;;;8.90;99.90;;;;;;10432258;28;20067;-67
2022/12/25 00:40:16;;;;;;;4.85;2.45;;;8.90;99.90;;;;;;10445846;28;20022;-67
2022/12/25 00:45:16;;;;;;;4.72;2.70;;;8.90;99.90;;;;;;10442963;28;20127;-68
2022/12/25 00:50:17;;;;;;;4.85;2.75;;;8.90;99.90;;;;;;10441287;28;20022;-68
2022/12/25 00:55:17;;;;;;;5.22;2.92;;;8.90;99.90;;;;;;10436066;28;20041;-68
2022/12/25 01:00:18;;;;;;;4.60;2.60;;;9.00;99.90;;;;;;10424004;28;20052;-68
2022/12/25 01:05:19;;;;;;;6.97;2.70;;;8.90;99.90;;;;;;10432381;28;20033;-69
2022/12/25 01:10:22;;;;;;;5.00;2.83;;;8.90;99.90;;;;;;10429549;28;20419;-69
2022/12/25 01:15:23;;;;;;;5.43;2.70;;;8.90;99.90;;;;;;10433191;28;20025;-68
2022/12/25 01:20:24;;;;;;;10.18;3.17;;;9.70;99.90;;;;;;10444614;28;20013;-69
2022/12/25 01:25:24;;;;;;;5.32;2.88;;;8.90;99.90;;;;;;10447152;28;20033;-69
2022/12/25 01:30:25;;;;;;;4.63;2.67;;;8.90;99.90;;;;;;10445325;28;20021;-69
2022/12/25 01:35:26;;;;;;;6.40;2.70;;;8.90;99.90;;;;;;10439519;28;20028;-69
2022/12/25 01:40:26;;;;;;;5.95;3.40;;;8.90;99.90;;;;;;10440474;28;20028;-69
2022/12/25 01:45:34;;;;;;;6.25;2.70;;;8.90;99.90;;;;;;10440138;28;20028;-68
2022/12/25 01:50:37;;;;;;;5.55;2.67;;;8.90;99.90;;;;;;10434959;28;20022;-69
2022/12/25 01:55:39;;;;;;;5.18;2.85;;;8.90;99.90;;;;;;10445740;28;20037;-68
2022/12/25 02:00:39;;;;;;;7.32;2.67;;;9.30;99.90;;;;;;10453796;28;20075;-69
2022/12/25 02:05:40;;;;;;;6.38;2.90;;;8.90;99.90;;;;;;10439452;28;20584;-69
2022/12/25 02:10:43;;;;;;;5.50;3.20;;;8.90;99.90;;;;;;10432241;28;20021;-69
2022/12/25 02:34:22;;;;;;;6.40;2.50;;;8.90;99.90;;;;;;10994414;22;20055;-64
2022/12/25 03:06:41;;;;;;;7.82;2.67;;;8.90;99.90;;;;;;10468678;28;20024;-67
2022/12/25 03:11:46;;;;;;;5.82;2.90;;;8.90;99.90;;;;;;10484032;28;20021;-67
2022/12/25 03:16:49;;;;;;;6.25;2.97;;;8.90;99.90;;;;;;10473063;28;20550;-67
2022/12/25 03:27:20;;;;;;;5.93;2.53;;;8.90;99.90;;;;;;10452731;28;20056;-67
2022/12/25 03:32:46;;;;;;;3.53;2.33;;;8.90;99.90;;;;;;10478485;28;20048;-67
2022/12/25 04:37:20;;;;;;;3.90;2.35;;;9.00;99.90;;;;;;10488913;28;20028;-67
2022/12/25 04:42:26;;;;;;;5.88;2.33;;;8.70;99.90;;;;;;10477429;28;20061;-67
2022/12/25 04:47:26;;;;;;;4.85;2.25;;;9.00;99.90;;;;;;10474938;28;20546;-67
2022/12/25 04:52:27;;;;;;;6.43;2.40;;;9.00;99.90;;;;;;10478510;28;20367;-67
2022/12/25 04:57:27;;;;;;;4.50;2.80;;;9.00;99.90;;;;;;10482355;28;20025;-67
2022/12/25 05:02:28;;;;;;;6.05;2.63;;;9.00;99.90;;;;;;10476826;28;20073;-67
2022/12/25 05:07:29;;;;;;;5.35;2.75;;;9.10;99.90;;;;;;10490078;28;20037;-67
2022/12/25 05:12:29;;;;;;;4.53;2.58;;;9.00;99.90;;;;;;10483498;28;20425;-66
2022/12/25 05:17:30;;;;;;;6.70;3.25;;;9.00;99.90;;;;;;10486426;28;20032;-67
2022/12/25 05:22:30;;;;;;;5.32;2.88;;;9.00;99.90;;;;;;10476824;28;20045;-67
2022/12/25 05:27:31;;;;;;;6.45;2.67;;;9.00;99.90;;;;;;10475124;28;20024;-66
2022/12/25 05:32:32;;;;;;;7.18;3.53;;;9.00;99.90;;;;;;10479146;28;20175;-67
2022/12/25 05:37:32;;;;;;;6.43;3.13;;;9.00;99.90;;;;;;10494779;28;20043;-67
2022/12/25 05:42:33;;;;;;;5.35;3.10;;;9.30;99.90;;;;;;10485414;28;20038;-67
2022/12/25 05:47:33;;;;;;;8.20;3.45;;;9.10;99.90;;;;;;10482219;28;20481;-66
2022/12/25 05:52:34;;;;;;;5.93;3.30;;;9.10;99.90;;;;;;10494983;28;20033;-66
2022/12/25 05:57:35;;;;;;;6.72;3.08;;;9.10;99.90;;;;;;10483798;28;20486;-66
2022/12/25 06:02:35;;;;;;;5.95;3.58;;;9.10;99.90;;;;;;10475666;28;20090;-66
2022/12/25 06:07:36;;;;;;;6.30;3.13;;;9.10;99.90;;;;;;10471776;28;20024;-67
2022/12/25 06:12:37;;;;;;;6.10;3.10;;;9.10;99.90;;;;;;10499994;28;20016;-67
2022/12/25 06:17:37;;;;;;;5.60;3.38;;;9.10;99.90;;;;;;10480769;28;20016;-66
2022/12/25 06:22:38;;;;;;;6.28;3.42;;;9.10;99.90;;;;;;10478266;28;20021;-67
2022/12/25 06:27:39;;;;;;;5.47;2.85;;;9.10;99.90;;;;;;10472152;28;20032;-66
2022/12/25 06:32:39;;;;;;;10.45;3.47;;;9.10;99.90;;;;;;10479551;28;20028;-67
2022/12/25 06:37:40;;;;;;;9.07;3.95;;;9.20;99.90;;;;;;10483601;28;20444;-67
2022/12/25 06:42:41;;;;;;;10.25;4.13;;;9.20;99.90;;;;;;10483424;28;20047;-67
2022/12/25 06:47:41;;;;;;;8.88;3.80;;;9.10;99.90;;;;;;10495792;28;20556;-67
2022/12/25 06:52:42;;;;;;;6.28;3.63;;;9.20;99.90;;;;;;10485058;28;20421;-66
2022/12/25 06:57:43;;;;;;;8.68;3.60;;;9.20;99.90;;;;;;10480522;28;20155;-67
2022/12/25 07:02:47;;;;;;;6.15;3.42;;;9.20;99.90;;;;;;10470351;28;20036;-67
2022/12/25 07:07:48;;;;;;;8.15;4.25;;;9.20;99.90;;;;;;10465514;28;20055;-67
2022/12/25 07:12:48;;;;;;;6.32;3.78;;;9.20;99.90;;;;;;10471219;28;20035;-66
2022/12/25 07:17:49;;;;;;;7.30;3.08;;;9.20;99.90;;;;;;10482034;28;20032;-67
2022/12/25 07:22:49;;;;;;;7.90;3.67;;;9.20;99.90;;;;;;10482926;28;20099;-67
2022/12/25 07:27:50;;;;;;;6.75;3.55;;;9.10;99.90;;;;;;10479452;28;20021;-66
2022/12/25 07:32:50;;;;;;;5.80;3.63;;;9.10;99.90;;;;;;10482839;28;20021;-67
2022/12/25 07:37:52;;;;;;;6.78;3.50;;;9.20;99.90;;;;;;10478883;28;20386;-66
2022/12/25 07:42:52;;;;;;;8.15;3.78;;;9.20;99.90;;;;;;10478327;28;20024;-66
2022/12/25 07:47:53;;;;;;;8.60;3.90;;;9.20;99.90;;;;;;10483058;28;20036;-67
2022/12/25 07:52:54;;;;;;;7.25;3.50;;;9.20;99.90;;;;;;10481546;28;20033;-67
2022/12/25 07:57:55;;;;;;;6.93;3.05;;;9.20;99.90;;;;;;10479314;28;20027;-67
2022/12/25 08:02:55;;;;;;;8.98;3.45;;;9.20;99.90;;;;;;10461426;28;20239;-67
2022/12/25 08:07:56;;;;;;;6.60;3.10;;;9.20;99.90;;;;;;10482603;28;20479;-67
2022/12/25 08:12:57;;;;;;;5.45;3.38;;;9.20;99.90;;;;;;10487918;28;20490;-67
2022/12/25 08:17:57;;;;;;;4.93;3.20;;;9.20;99.90;;;;;;10494946;28;20029;-66
2022/12/25 08:23:00;;;;;;;6.80;3.70;;;9.30;99.90;;;;;;10473426;28;20028;-66
2022/12/25 08:28:00;;;;;;;6.85;3.50;;;9.30;99.90;;;;;;10479346;28;20028;-66
2022/12/25 08:33:01;;;;;;;7.45;3.65;;;9.30;99.90;;;;;;10495247;28;20093;-66
2022/12/25 08:38:02;;;;;;;7.75;3.22;;;9.30;99.90;;;;;;10503375;22;20520;-64
2022/12/25 08:43:03;;;;;;;4.97;3.10;;;9.30;99.90;;;;;;10478922;28;20452;-64
2022/12/25 08:48:03;;;;;;;5.35;3.17;;;9.30;99.90;;;;;;10487250;28;20106;-64
2022/12/25 08:53:04;;;;;;;4.78;3.40;;;9.30;99.90;;;;;;10482863;28;20779;-64
2022/12/25 08:58:05;;;;;;;6.72;3.40;;;9.30;99.90;;;;;;10482926;28;20035;-64
2022/12/25 09:03:05;;;;;;;6.35;3.10;;;9.30;99.90;;;;;;10484791;28;20019;-64
2022/12/25 09:08:06;;;;;;;6.78;3.00;;;9.30;99.90;;;;;;10491003;28;20115;-64
2022/12/25 09:13:07;;;;;;;5.72;3.00;;;9.30;99.90;;;;;;10493472;28;20082;-64
2022/12/25 09:18:08;;;;;;;5.55;3.20;;;9.30;99.90;;;;;;10487162;28;20025;-64
2022/12/25 09:23:08;;;;;;;7.28;3.58;;;9.40;99.90;;;;;;10483934;28;20035;-64
2022/12/25 09:28:09;;;;;;;5.57;3.13;;;9.30;99.90;;;;;;10476615;28;20033;-64
2022/12/25 09:33:09;;;;;;;5.93;2.92;;;9.40;99.90;;;;;;10473597;28;20036;-64
2022/12/25 09:38:10;;;;;;;6.38;2.92;;;9.40;99.90;;;;;;10461297;28;20033;-64
2022/12/25 09:43:17;;;;;;;5.47;3.38;;;9.40;99.90;;;;;;10465826;28;20296;-64
2022/12/25 09:48:18;;;;;;;7.53;3.15;;;9.40;99.90;;;;;;10458791;28;20039;-63
2022/12/25 09:53:22;;;;;;;6.40;3.20;;;9.40;99.90;;;;;;10461138;28;20035;-65
2022/12/25 09:58:24;;;;;;;4.22;2.42;;;9.40;99.90;;;;;;10467309;28;20462;-64
2022/12/25 10:03:42;;;;;;;7.40;2.75;;;9.40;99.90;;;;;;10466517;28;20533;-64
2022/12/25 10:09:12;;;;;;;6.25;2.75;;;9.40;99.90;;;;;;10456371;28;20028;-64
2022/12/25 10:14:21;;;;;;;6.93;3.30;;;9.40;99.90;;;;;;10455201;28;20089;-66
2022/12/25 10:19:46;;;;;;;8.85;4.57;;;9.40;99.90;;;;;;10466461;28;20025;-64
2022/12/25 10:24:50;;;;;;;9.55;4.53;;;9.40;99.90;;;;;;10469550;28;20063;-66
2022/12/25 10:29:53;;;;;;;7.20;3.72;;;9.50;99.90;;;;;;10487939;28;20040;-63
2022/12/25 10:34:54;;;;;;;8.07;4.07;;;9.50;99.90;;;;;;10482658;28;20493;-64
2022/12/25 10:39:56;;;;;;;13.48;4.35;;;9.60;99.90;;;;;;10479484;28;20120;-64
2022/12/25 10:44:59;;;;;;;9.75;4.03;;;9.60;99.90;;;;;;10468737;28;20024;-64
2022/12/25 10:50:10;;;;;;;8.27;3.30;;;10.60;99.90;;;;;;10465117;28;20041;-64
2022/12/25 10:55:12;;;;;;;7.90;3.38;;;9.60;99.90;;;;;;10465511;28;20367;-65
2022/12/25 11:00:24;;;;;;;10.68;4.30;;;9.60;99.90;;;;;;10464301;28;20461;-63
2022/12/25 11:05:28;;;;;;;8.18;3.78;;;9.60;99.90;;;;;;10457724;28;20036;-64
2022/12/25 11:10:36;;;;;;;7.60;3.72;;;9.60;99.90;;;;;;10458479;28;20017;-64
2022/12/25 11:15:44;;;;;;;6.78;3.40;;;9.70;99.90;;;;;;10455797;28;20025;-63
2022/12/25 11:20:53;;;;;;;8.98;3.70;;;9.60;99.90;;;;;;10475555;28;20071;-63
2022/12/25 11:25:55;;;;;;;6.68;3.22;;;9.70;99.90;;;;;;10477180;28;20626;-63
2022/12/25 11:31:08;;;;;;;5.97;3.03;;;9.90;99.90;;;;;;10485984;28;20474;-63
2022/12/25 11:36:20;;;;;;;6.65;2.97;;;9.70;99.90;;;;;;10465317;28;20043;-64
2022/12/25 11:41:29;;;;;;;9.00;3.35;;;9.70;99.90;;;;;;10481659;28;20031;-63
2022/12/25 11:46:40;;;;;;;7.80;3.80;;;9.70;99.90;;;;;;10488920;28;20040;-63
2022/12/25 11:51:44;;;;;;;6.10;2.75;;;9.70;99.90;;;;;;10480186;28;20486;-63
2022/12/25 11:56:45;;;;;;;7.32;3.35;;;9.80;99.90;;;;;;10489359;28;20028;-63
2022/12/25 12:01:51;;;;;;;7.00;3.47;;;9.80;99.90;;;;;;10470797;28;20077;-62
2022/12/25 12:06:57;;;;;;;5.40;2.80;;;9.80;99.90;;;;;;10490068;28;20033;-62
2022/12/25 12:12:21;;;;;;;9.38;3.33;;;9.80;99.90;;;;;;10484998;28;20020;-64
2022/12/25 12:17:22;;;;;;;6.13;3.00;;;9.80;99.90;;;;;;10481049;28;20016;-63
2022/12/25 12:22:26;;;;;;;5.70;2.53;;;9.80;99.90;;;;;;10486352;28;20033;-63
2022/12/25 12:27:39;;;;;;;4.60;2.90;;;9.80;99.90;;;;;;10469731;28;20086;-67
2022/12/25 12:32:43;;;;;;;9.80;3.00;;;9.80;99.90;;;;;;10469966;28;20532;-65
2022/12/25 12:37:47;;;;;;;7.63;3.30;;;9.90;99.90;;;;;;10473745;28;20021;-68
2022/12/25 12:42:49;;;;;;;5.20;2.63;;;9.90;99.90;;;;;;10478837;28;20108;-66
2022/12/25 12:47:50;;;;;;;6.75;3.05;;;9.90;99.90;;;;;;10474895;28;20035;-66
2022/12/25 12:52:51;;;;;;;8.20;3.22;;;9.90;99.90;;;;;;10482557;28;20020;-66
2022/12/25 12:58:00;;;;;;;6.07;2.90;;;9.80;99.90;;;;;;10482582;28;20487;-66
2022/12/25 13:03:45;;;;;;;9.57;4.20;;;9.80;99.90;;;;;;10485857;28;20473;-66
2022/12/25 13:08:51;;;;;;;6.25;2.85;;;9.90;99.90;;;;;;10451894;28;20063;-66
2022/12/25 13:13:54;;;;;;;8.05;2.80;;;9.90;99.90;;;;;;10486044;28;20021;-66
2022/12/25 13:18:56;;;;;;;11.93;3.00;;;9.90;99.90;;;;;;10484362;28;20116;-66
2022/12/25 13:23:58;;;;;;;7.40;3.25;;;9.80;99.90;;;;;;10479671;28;20070;-65
2022/12/25 13:28:59;;;;;;;8.15;3.85;;;9.80;99.90;;;;;;10480342;28;20475;-64
2022/12/25 13:34:00;;;;;;;8.07;3.17;;;9.80;99.90;;;;;;10474898;28;20021;-65
2022/12/25 13:39:00;;;;;;;5.15;3.25;;;9.90;99.90;;;;;;10461551;28;20025;-65
2022/12/25 13:44:02;;;;;;;7.32;3.55;;;9.90;99.90;;;;;;10470445;28;20233;-65
2022/12/25 13:49:08;;;;;;;5.78;3.22;;;9.90;99.90;;;;;;10482752;28;20696;-64
2022/12/25 13:54:14;;;;;;;5.95;3.28;;;9.80;99.90;;;;;;10476857;28;20048;-67
2022/12/25 13:59:20;;;;;;;8.00;3.70;;;9.90;99.90;;;;;;10480154;28;20029;-65
2022/12/25 14:04:23;;;;;;;5.68;3.30;;;9.90;99.90;;;;;;10481145;28;20023;-65
2022/12/25 14:09:23;;;;;;;5.20;3.00;;;9.80;99.90;;;;;;10480338;28;20070;-66
2022/12/25 14:14:25;;;;;;;8.05;3.55;;;9.80;99.90;;;;;;10478275;28;20033;-64
2022/12/25 14:19:30;;;;;;;6.70;3.30;;;9.80;99.90;;;;;;10483907;28;20379;-66
2022/12/25 14:24:33;;;;;;;7.32;3.85;;;9.80;99.90;;;;;;10483372;28;20034;-66
2022/12/25 14:29:38;;;;;;;9.18;3.20;;;9.80;99.90;;;;;;10479354;28;20025;-66
2022/12/25 14:34:40;;;;;;;6.40;3.25;;;9.80;99.90;;;;;;10471963;28;20093;-66
2022/12/25 14:39:45;;;;;;;6.13;3.40;;;9.80;99.90;;;;;;10509023;22;20047;-67
2022/12/25 14:45:23;;;;;;;6.22;3.67;;;9.80;99.90;;;;;;10477003;28;20065;-66
2022/12/25 14:50:30;;;;;;;6.72;3.70;;;9.80;99.90;;;;;;10465131;28;20116;-66
2022/12/25 14:55:31;;;;;;;5.63;3.70;;;9.80;99.90;;;;;;10465453;28;20050;-66
2022/12/25 15:00:37;;;;;;;7.88;3.63;;;9.80;99.90;;;;;;10473796;28;20028;-66
2022/12/25 15:05:38;;;;;;;9.82;4.22;;;9.80;99.90;;;;;;10480417;28;20017;-67
2022/12/25 15:10:40;;;;;;;7.40;3.88;;;9.80;99.90;;;;;;10463892;28;20013;-64
2022/12/25 15:15:52;;;;;;;7.68;3.60;;;9.80;99.90;;;;;;10481933;28;20032;-66
2022/12/25 15:20:53;;;;;;;6.40;3.53;;;9.80;99.90;;;;;;10496464;28;20056;-67
2022/12/25 15:25:54;;;;;;;6.57;3.70;;;9.80;99.90;;;;;;10488505;28;20492;-65
2022/12/25 15:30:55;;;;;;;6.70;3.90;;;10.80;99.90;;;;;;10489631;28;20185;-66
2022/12/25 15:35:55;;;;;;;5.65;3.42;;;9.80;99.90;;;;;;10494729;28;20036;-65
2022/12/25 15:40:56;;;;;;;8.05;3.80;;;9.80;99.90;;;;;;10490728;28;20020;-68
2022/12/25 15:45:57;;;;;;;7.20;4.10;;;9.80;99.90;;;;;;10495843;28;20035;-69
2022/12/25 15:50:57;;;;;;;13.35;4.22;;;9.80;99.90;;;;;;10492998;28;20047;-67
2022/12/25 15:55:58;;;;;;;6.72;4.05;;;9.80;99.90;;;;;;10491620;28;20062;-65
2022/12/25 16:00:58;;;;;;;8.20;4.00;;;9.90;99.90;;;;;;10492544;28;20060;-67
2022/12/25 16:05:59;;;;;;;7.07;4.15;;;9.90;99.90;;;;;;10491746;28;20036;-66
2022/12/25 16:11:00;;;;;;;7.50;4.22;;;9.90;99.90;;;;;;10485360;28;20021;-65
2022/12/25 16:16:01;;;;;;;6.93;4.30;;;9.90;99.90;;;;;;10493588;28;20488;-66
2022/12/25 16:21:02;;;;;;;9.13;4.32;;;9.80;99.90;;;;;;10490445;28;20092;-68
2022/12/25 16:26:03;;;;;;;7.40;4.68;;;9.90;99.90;;;;;;10488554;28;20536;-64
2022/12/25 16:31:03;;;;;;;8.13;4.28;;;9.90;99.90;;;;;;10482638;28;20031;-65
2022/12/25 16:36:04;;;;;;;9.80;5.03;;;9.90;99.90;;;;;;10485726;28;20040;-65
2022/12/25 16:41:05;;;;;;;7.15;4.15;;;9.90;99.90;;;;;;10491189;28;20089;-68
2022/12/25 16:46:18;;;;;;;8.13;4.10;;;9.90;99.90;;;;;;10486982;28;20020;-69
2022/12/25 16:51:23;;;;;;;6.88;4.15;;;9.90;99.90;;;;;;10486610;28;20029;-68
2022/12/25 16:56:25;;;;;;;7.38;4.43;;;9.80;99.90;;;;;;10482713;28;20028;-67
2022/12/25 17:01:26;;;;;;;8.25;4.30;;;9.90;99.90;;;;;;10478530;28;20024;-67
2022/12/25 17:06:27;;;;;;;7.05;4.38;;;9.80;99.90;;;;;;10477342;28;20358;-68
2022/12/25 17:11:28;;;;;;;6.43;4.18;;;9.80;99.90;;;;;;10473702;28;20012;-69
2022/12/25 17:16:36;;;;;;;7.93;4.10;;;9.80;99.90;;;;;;10494495;28;20459;-68
2022/12/25 17:21:37;;;;;;;7.53;4.15;;;9.80;99.90;;;;;;10481917;28;20024;-67
2022/12/25 17:26:40;;;;;;;8.02;4.70;;;9.80;99.90;;;;;;10483515;28;20016;-67
2022/12/25 17:31:40;;;;;;;11.27;5.10;;;9.90;99.90;;;;;;10482893;28;20100;-70
2022/12/25 17:36:41;;;;;;;7.97;4.95;;;10.00;99.90;;;;;;10481158;28;20039;-68
2022/12/25 17:41:42;;;;;;;8.07;4.70;;;10.00;99.90;;;;;;10484172;28;20035;-68
2022/12/25 17:46:42;;;;;;;8.90;4.80;;;10.00;99.90;;;;;;10478450;28;20052;-65
2022/12/25 17:51:44;;;;;;;10.32;5.60;;;10.00;99.90;;;;;;10491988;28;20107;-65
2022/12/25 17:56:44;;;;;;;9.98;4.93;;;10.00;99.90;;;;;;10478741;28;20058;-69
2022/12/25 18:01:45;;;;;;;10.23;5.32;;;10.10;99.90;;;;;;10465980;28;20070;-69
2022/12/25 18:06:46;;;;;;;9.38;5.07;;;10.00;99.90;;;;;;10483927;28;20140;-67
2022/12/25 18:11:47;;;;;;;9.57;5.10;;;10.00;99.90;;;;;;10480462;28;20145;-69
2022/12/25 18:16:47;;;;;;;10.02;5.00;;;10.00;99.90;;;;;;10482147;28;20028;-68
2022/12/25 18:21:49;;;;;;;9.18;4.55;;;10.00;99.90;;;;;;10487977;28;20069;-69
2022/12/25 18:26:50;;;;;;;8.85;5.15;;;10.00;99.90;;;;;;10489133;28;20378;-70
2022/12/25 18:31:50;;;;;;;6.60;4.50;;;9.90;99.90;;;;;;10482101;28;20378;-69
2022/12/25 18:36:51;;;;;;;7.78;4.78;;;9.90;99.90;;;;;;10482139;28;20494;-70
2022/12/25 18:47:11;;;;;;;8.82;4.60;;;9.90;99.90;;;;;;10483595;28;20021;-69
2022/12/25 18:52:11;;;;;;;8.82;4.60;;;9.90;99.90;;;;;;10469357;28;20491;-69
2022/12/25 18:57:12;;;;;;;7.68;4.40;;;9.90;99.90;;;;;;10461841;28;20469;-69
2022/12/25 19:02:14;;;;;;;8.50;4.50;;;10.00;99.90;;;;;;10479828;28;20376;-68
2022/12/25 19:07:15;;;;;;;12.55;6.63;;;9.90;99.90;;;;;;10471262;28;20154;-62
2022/12/25 19:12:16;;;;;;;10.95;6.28;;;9.90;99.90;;;;;;10481845;28;20020;-71
2022/12/25 19:17:17;;;;;;;13.68;6.63;;;10.00;99.90;;;;;;10474188;28;20035;-70
2022/12/25 19:22:18;;;;;;;13.75;6.13;;;10.40;99.90;;;;;;10478378;28;20032;-70
2022/12/25 19:27:18;;;;;;;10.10;6.07;;;10.00;99.90;;;;;;10482554;28;20032;-71
2022/12/25 19:32:19;;;;;;;11.75;5.88;;;10.00;99.90;;;;;;10482107;28;20050;-70
2022/12/25 19:37:19;;;;;;;9.77;5.80;;;10.00;99.90;;;;;;10481505;28;20477;-71
2022/12/25 19:42:20;;;;;;;12.35;5.50;;;10.00;99.90;;;;;;10481745;28;20017;-71
2022/12/25 19:47:21;;;;;;;8.68;5.25;;;10.00;99.90;;;;;;10485354;28;20488;-70
2022/12/25 19:52:22;;;;;;;9.20;5.07;;;9.90;99.90;;;;;;10474668;28;20032;-70
2022/12/25 19:57:22;;;;;;;8.88;5.05;;;10.00;99.90;;;;;;10459592;28;20496;-71
2022/12/25 20:02:23;;;;;;;7.88;4.50;;;9.90;99.90;;;;;;10457556;28;20021;-71
2022/12/25 20:07:23;;;;;;;8.45;5.22;;;9.90;99.90;;;;;;10472826;28;20033;-71
2022/12/25 20:12:24;;;;;;;11.70;5.35;;;10.00;99.90;;;;;;10479374;28;20062;-69
2022/12/25 20:17:25;;;;;;;7.72;4.55;;;9.90;99.90;;;;;;10486189;28;20032;-71
2022/12/25 20:22:25;;;;;;;10.52;5.38;;;9.60;99.90;;;;;;10469118;28;20028;-69
2022/12/25 20:27:27;;;;;;;8.30;4.72;;;9.90;99.90;;;;;;10469220;28;20031;-69
2022/12/25 20:32:28;;;;;;;8.57;4.82;;;9.90;99.90;;;;;;10473021;28;20485;-70
2022/12/25 20:37:29;;;;;;;8.60;4.60;;;9.90;99.90;;;;;;10467136;28;20131;-69
2022/12/25 20:42:29;;;;;;;7.50;4.22;;;9.90;99.90;;;;;;10477399;28;20020;-70
2022/12/25 20:47:30;;;;;;;9.27;4.88;;;9.90;99.90;;;;;;10472328;28;20043;-70
2022/12/25 20:52:30;;;;;;;9.23;5.15;;;9.90;99.90;;;;;;10488268;28;20016;-68
2022/12/25 20:57:31;;;;;;;9.07;5.22;;;9.90;99.90;;;;;;10499427;28;20075;-68
2022/12/25 21:02:32;;;;;;;7.95;4.95;;;9.90;99.90;;;;;;10499497;28;20023;-68
2022/12/25 21:07:33;;;;;;;9.57;4.63;;;9.90;99.90;;;;;;10498892;28;20025;-68
2022/12/25 21:12:33;;;;;;;8.43;4.85;;;9.90;99.90;;;;;;10499069;28;20381;-68
2022/12/25 21:17:34;;;;;;;8.77;4.78;;;9.90;99.90;;;;;;10498406;28;20039;-68
2022/12/25 21:22:35;;;;;;;7.95;4.45;;;9.90;99.90;;;;;;10499013;28;20408;-67
2022/12/25 21:27:35;;;;;;;10.27;5.25;;;9.90;99.90;;;;;;10498664;28;20024;-68
2022/12/25 21:37:55;;;;;;;8.30;4.47;;;9.80;99.90;;;;;;10498478;28;20040;-68
2022/12/25 21:42:55;;;;;;;8.50;5.13;;;9.80;99.90;;;;;;10498346;28;20028;-68
2022/12/25 21:47:56;;;;;;;8.10;4.75;;;9.80;99.90;;;;;;10498555;28;20017;-67
2022/12/25 21:52:57;;;;;;;7.18;4.45;;;9.90;99.90;;;;;;10497709;28;20017;-67
2022/12/25 21:57:57;;;;;;;8.73;5.00;;;9.80;99.90;;;;;;10497588;28;20037;-68
2022/12/25 22:02:58;;;;;;;9.10;4.50;;;9.80;99.90;;;;;;10497570;28;20028;-68
2022/12/25 22:07:58;;;;;;;10.18;5.10;;;9.80;99.90;;;;;;10497508;28;20535;-67
2022/12/25 22:23:37;;;;;;;8.68;4.15;;;9.90;99.90;;;;;;10496992;28;20035;-68
2022/12/25 22:28:38;;;;;;;9.07;4.88;;;9.90;99.90;;;;;;10496075;28;20047;-68
2022/12/25 22:33:39;;;;;;;7.90;4.40;;;9.90;99.90;;;;;;10496601;28;20074;-68
2022/12/25 22:38:41;;;;;;;8.23;4.80;;;9.80;99.90;;;;;;10496495;28;20072;-68
2022/12/25 22:43:43;;;;;;;8.68;4.63;;;9.80;99.90;;;;;;10495829;28;20016;-68
2022/12/25 22:48:43;;;;;;;7.95;4.32;;;9.80;99.90;;;;;;10495374;28;20381;-68
2022/12/25 22:53:44;;;;;;;8.15;4.25;;;9.80;99.90;;;;;;10495996;28;20020;-68
2022/12/25 22:58:44;;;;;;;8.93;4.75;;;9.90;99.90;;;;;;10495695;28;20129;-68
2022/12/25 23:03:45;;;;;;;7.38;4.32;;;9.80;99.90;;;;;;10495483;28;20024;-68
2022/12/25 23:08:46;;;;;;;7.07;4.30;;;9.80;99.90;;;;;;10495314;28;20020;-68
2022/12/25 23:29:45;;;;;;;6.88;4.50;;;9.90;99.90;;;;;;10494741;28;20491;-68
2022/12/25 23:34:46;;;;;;;7.70;4.53;;;9.80;99.90;;;;;;10494713;28;20029;-68
2022/12/25 23:39:48;;;;;;;7.88;4.30;;;9.80;99.90;;;;;;10497976;28;20053;-68
2022/12/25 23:44:49;;;;;;;7.90;4.55;;;9.80;99.90;;;;;;10503465;28;20086;-67
2022/12/25 23:49:50;;;;;;;7.80;3.88;;;9.90;99.90;;;;;;10502512;28;20299;-68
2022/12/25 23:54:50;;;;;;;7.43;4.15;;;9.90;99.90;;;;;;10502866;28;20024;-68
2022/12/25 23:59:51;;;;;;;6.22;3.90;;;9.80;99.90;;;;;;10502546;28;20044;-68
